Time;durP1;ratioP1;P1;durP2;ratioP2;P2;SDS_P1;SDS_P2;PMS_P1;PMS_P2;Temp;Humidity;BMP_temperature;BMP_pressure;BME280_temperature;BME280_humidity;BME280_pressure;Samples;Min_cycle;Max_cycle;Signal;HPM_P1;HPM_P2
2023/06/04 04:57:50;;;;;;;5.47;2.28;;;;;;;;;;6230206;22;20015;-94
2023/06/04 05:05:34;;;;;;;4.18;2.20;;;;;;;;;;6112950;22;21220;-92
2023/06/04 05:13:41;;;;;;;8.57;2.33;;;;;;;;;;6142698;22;20040;-93
2023/06/04 05:18:52;;;;;;;4.07;1.98;;;;;;;;;;6330222;22;20195;-94
2023/06/04 05:26:39;;;;;;;2.88;1.52;;;;;;;;;;6149978;22;20021;-95
2023/06/04 05:29:05;;;;;;;4.30;1.88;;;;;;;;;;6158704;23;20001;-94
2023/06/04 05:31:33;;;;;;;3.40;1.73;;;;;;;;;;6227398;22;20101;-95
2023/06/04 05:34:08;;;;;;;4.45;2.30;;;;;;;;;;6163439;23;20041;-94
2023/06/04 05:36:40;;;;;;;7.22;2.00;;;;;;;;;;6168736;22;20010;-93
2023/06/04 05:41:45;;;;;;;3.50;2.00;;;;;;;;;;6312131;22;20019;-91
2023/06/04 05:44:20;;;;;;;3.65;2.00;;;;;;;;;;6326495;22;20035;-92
2023/06/04 05:49:19;;;;;;;3.85;2.00;;;;;;;;;;6162133;22;21614;-90
2023/06/04 05:51:46;;;;;;;2.92;1.67;;;;;;;;;;6173998;23;20053;-91
2023/06/04 05:54:12;;;;;;;6.38;2.13;;;;;;;;;;6192030;22;20036;-92
2023/06/04 05:56:38;;;;;;;4.25;1.85;;;;;;;;;;6158256;23;20001;-94
2023/06/04 05:59:05;;;;;;;3.75;1.92;;;;;;;;;;6160719;23;20100;-93
2023/06/04 06:01:31;;;;;;;3.13;1.90;;;;;;;;;;6187481;23;20013;-92
2023/06/04 06:03:58;;;;;;;3.75;2.03;;;;;;;;;;6161840;23;20009;-95
2023/06/04 06:06:25;;;;;;;4.18;2.20;;;;;;;;;;6190459;23;20008;-92
2023/06/04 06:11:38;;;;;;;4.75;2.15;;;;;;;;;;6351793;22;20026;-94
2023/06/04 06:14:10;;;;;;;6.32;2.58;;;;;;;;;;6211416;22;20002;-90
2023/06/04 06:16:37;;;;;;;5.65;2.10;;;;;;;;;;6216155;22;20030;-91
2023/06/04 06:19:03;;;;;;;4.78;2.03;;;;;;;;;;6217688;22;20030;-90
2023/06/04 06:24:11;;;;;;;3.38;1.90;;;;;;;;;;6317554;22;20101;-92
2023/06/04 06:26:47;;;;;;;3.35;2.00;;;;;;;;;;6248011;22;20437;-92
2023/06/04 06:29:13;;;;;;;5.10;1.90;;;;;;;;;;6281319;22;20000;-92
2023/06/04 06:31:40;;;;;;;4.75;1.95;;;;;;;;;;6285203;22;20015;-94
2023/06/04 06:34:15;;;;;;;3.95;1.90;;;;;;;;;;6282626;22;20020;-95
2023/06/04 06:39:36;;;;;;;5.90;2.10;;;;;;;;;;6286458;22;20014;-93
2023/06/04 06:42:05;;;;;;;5.20;2.20;;;;;;;;;;6282327;22;20060;-94
2023/06/04 06:47:13;;;;;;;4.95;1.90;;;;;;;;;;6207007;22;20029;-93
2023/06/04 06:49:40;;;;;;;5.40;2.10;;;;;;;;;;6294124;22;20420;-92
2023/06/04 06:52:06;;;;;;;3.90;1.88;;;;;;;;;;6291824;22;20009;-92
2023/06/04 06:54:38;;;;;;;7.25;2.28;;;;;;;;;;6291325;22;20001;-93
2023/06/04 06:57:08;;;;;;;4.28;2.30;;;;;;;;;;6306341;22;20005;-91
2023/06/04 06:59:35;;;;;;;4.03;2.28;;;;;;;;;;6304929;22;20001;-91
2023/06/04 07:02:13;;;;;;;6.38;2.13;;;;;;;;;;6293850;22;20009;-96
2023/06/04 07:04:42;;;;;;;6.30;1.98;;;;;;;;;;6189924;22;20048;-95
2023/06/04 07:07:20;;;;;;;4.13;2.10;;;;;;;;;;6292952;22;20059;-92
2023/06/04 07:09:49;;;;;;;7.45;3.05;;;;;;;;;;6287009;22;20012;-91
2023/06/04 07:12:19;;;;;;;4.95;2.10;;;;;;;;;;6280933;22;20008;-91
2023/06/04 07:17:56;;;;;;;7.32;2.00;;;;;;;;;;6240598;22;20802;-93
2023/06/04 07:20:22;;;;;;;3.95;2.00;;;;;;;;;;6259599;22;20051;-91
2023/06/04 07:22:57;;;;;;;7.30;2.28;;;;;;;;;;6289455;22;20043;-93
2023/06/04 07:25:51;;;;;;;7.43;1.98;;;;;;;;;;6264961;22;20011;-91
2023/06/04 07:28:17;;;;;;;5.47;2.33;;;;;;;;;;6286473;22;20067;-91
2023/06/04 07:31:06;;;;;;;5.07;2.28;;;;;;;;;;6284707;22;20420;-91
2023/06/04 07:36:36;;;;;;;4.88;2.30;;;;;;;;;;6281850;22;20527;-91
2023/06/04 07:39:06;;;;;;;4.47;2.17;;;;;;;;;;6255771;22;20004;-92
2023/06/04 07:41:45;;;;;;;3.25;1.80;;;;;;;;;;6260947;22;20035;-94
2023/06/04 07:44:13;;;;;;;3.45;1.80;;;;;;;;;;6267936;22;19991;-91
2023/06/04 07:46:54;;;;;;;4.57;1.80;;;;;;;;;;6257337;22;20003;-92
2023/06/04 08:26:08;;;;;;;4.78;2.10;;;;;;;;;;6180351;22;20108;-92
2023/06/04 08:28:38;;;;;;;6.22;2.42;;;;;;;;;;6292171;22;20020;-91
2023/06/04 08:31:47;;;;;;;6.22;2.78;;;;;;;;;;6281532;22;20058;-90
2023/06/04 08:34:13;;;;;;;4.30;2.20;;;;;;;;;;6256035;22;20011;-92
2023/06/04 08:36:39;;;;;;;4.85;2.17;;;;;;;;;;6256223;22;20011;-91
2023/06/04 08:39:09;;;;;;;6.70;2.30;;;;;;;;;;6255633;22;20014;-92
2023/06/04 08:41:43;;;;;;;4.45;2.55;;;;;;;;;;6261212;22;20042;-93
2023/06/04 08:44:10;;;;;;;5.90;3.47;;;;;;;;;;6257515;22;20014;-94
2023/06/04 08:46:40;;;;;;;6.18;2.50;;;;;;;;;;6243202;22;20052;-93
2023/06/04 08:49:07;;;;;;;7.70;3.10;;;;;;;;;;6290194;22;20052;-93
2023/06/04 08:51:37;;;;;;;6.13;3.30;;;;;;;;;;6290442;22;20008;-94
2023/06/04 08:54:10;;;;;;;3.58;2.38;;;;;;;;;;6294087;22;19993;-91
2023/06/04 08:56:36;;;;;;;6.28;4.00;;;;;;;;;;6291858;22;20001;-94
2023/06/04 08:59:07;;;;;;;6.65;4.18;;;;;;;;;;6289873;22;20005;-93
2023/06/04 09:01:34;;;;;;;14.68;9.80;;;;;;;;;;6290321;22;20012;-92
2023/06/04 09:04:02;;;;;;;11.70;6.22;;;;;;;;;;6289633;22;20011;-92
2023/06/04 09:06:28;;;;;;;7.03;3.45;;;;;;;;;;6289922;22;20497;-93
2023/06/04 09:08:58;;;;;;;5.65;2.33;;;;;;;;;;6289698;22;20039;-92
2023/06/04 09:11:26;;;;;;;5.97;2.20;;;;;;;;;;6291111;22;20005;-90
2023/06/04 09:13:54;;;;;;;3.72;2.38;;;;;;;;;;6306222;22;19989;-91
2023/06/04 09:16:20;;;;;;;5.57;2.20;;;;;;;;;;6301513;22;20035;-92
2023/06/04 09:18:52;;;;;;;3.88;2.40;;;;;;;;;;6289863;22;20126;-93
2023/06/04 09:21:19;;;;;;;6.60;2.40;;;;;;;;;;6292890;22;20005;-92
2023/06/04 09:23:47;;;;;;;11.23;2.67;;;;;;;;;;6292988;22;20023;-89
2023/06/04 09:26:16;;;;;;;5.22;2.42;;;;;;;;;;6292407;22;20001;-91
2023/06/04 09:28:42;;;;;;;4.85;2.70;;;;;;;;;;6294018;22;20048;-90
2023/06/04 09:31:09;;;;;;;5.07;2.40;;;;;;;;;;6290561;22;20126;-92
2023/06/04 09:36:35;;;;;;;4.88;2.72;;;;;;;;;;6184067;23;20032;-91
2023/06/04 09:39:02;;;;;;;6.68;2.60;;;;;;;;;;6289482;22;20385;-90
2023/06/04 09:41:29;;;;;;;6.93;2.80;;;;;;;;;;6293357;22;20067;-91
2023/06/04 09:44:13;;;;;;;6.85;2.90;;;;;;;;;;6290640;22;20001;-92
2023/06/04 09:46:41;;;;;;;6.00;3.10;;;;;;;;;;6293142;22;20089;-92
2023/06/04 09:49:07;;;;;;;6.32;2.88;;;;;;;;;;6292323;22;20056;-91
2023/06/04 09:51:33;;;;;;;7.20;3.17;;;;;;;;;;6291790;22;20008;-92
2023/06/04 09:54:01;;;;;;;9.35;4.13;;;;;;;;;;6289475;22;20047;-91
2023/06/04 09:56:27;;;;;;;7.40;3.20;;;;;;;;;;6290273;22;20008;-89
2023/06/04 09:59:01;;;;;;;6.20;3.40;;;;;;;;;;6287387;22;20011;-93
2023/06/04 10:01:28;;;;;;;6.63;2.92;;;;;;;;;;6288606;22;20001;-89
2023/06/04 10:04:03;;;;;;;4.88;2.65;;;;;;;;;;6290310;22;20012;-93
2023/06/04 10:06:31;;;;;;;6.78;2.65;;;;;;;;;;6289483;22;20066;-94
2023/06/04 10:09:02;;;;;;;6.57;2.72;;;;;;;;;;6289613;22;20001;-91
2023/06/04 10:11:35;;;;;;;6.03;3.08;;;;;;;;;;6289733;22;20008;-92
2023/06/04 10:14:05;;;;;;;6.93;3.33;;;;;;;;;;6287860;22;20005;-91
2023/06/04 10:16:32;;;;;;;6.03;2.95;;;;;;;;;;6287328;22;20001;-91
2023/06/04 10:19:00;;;;;;;5.88;3.80;;;;;;;;;;6289187;22;20039;-91
2023/06/04 10:21:27;;;;;;;6.00;3.63;;;;;;;;;;6310190;22;19997;-89
2023/06/04 10:23:53;;;;;;;6.57;3.22;;;;;;;;;;6292077;22;20005;-91
2023/06/04 10:26:19;;;;;;;7.85;3.60;;;;;;;;;;6290151;22;20001;-94
2023/06/04 10:28:45;;;;;;;4.50;3.00;;;;;;;;;;6294665;22;20130;-93
2023/06/04 10:31:12;;;;;;;6.05;2.78;;;;;;;;;;6282734;22;19999;-93
2023/06/04 10:33:38;;;;;;;5.20;3.20;;;;;;;;;;6279174;22;20003;-92
2023/06/04 10:36:24;;;;;;;6.30;3.50;;;;;;;;;;6282159;22;20007;-94
2023/06/04 10:38:53;;;;;;;9.15;3.38;;;;;;;;;;6283637;22;20004;-93
2023/06/04 10:41:32;;;;;;;7.10;2.88;;;;;;;;;;6279333;22;20003;-93
2023/06/04 10:44:02;;;;;;;7.32;3.17;;;;;;;;;;6281975;22;20011;-95
2023/06/04 10:46:37;;;;;;;6.35;3.03;;;;;;;;;;6255139;22;20010;-92
2023/06/04 10:49:03;;;;;;;5.43;3.10;;;;;;;;;;6251827;22;20004;-89
2023/06/04 10:51:31;;;;;;;5.82;2.80;;;;;;;;;;6252305;22;20085;-92
2023/06/04 10:54:00;;;;;;;4.13;2.83;;;;;;;;;;6254376;22;20000;-92
2023/06/04 10:56:36;;;;;;;4.65;3.05;;;;;;;;;;6254298;22;20098;-91
2023/06/04 10:59:13;;;;;;;5.45;2.97;;;;;;;;;;6252074;22;20003;-92
2023/06/04 11:01:40;;;;;;;9.27;3.63;;;;;;;;;;6282983;22;19995;-91
2023/06/04 11:04:06;;;;;;;7.70;3.67;;;;;;;;;;6283314;22;20030;-92
2023/06/04 11:06:32;;;;;;;6.55;3.50;;;;;;;;;;6279377;22;20000;-93
2023/06/04 11:09:05;;;;;;;8.65;3.83;;;;;;;;;;6281627;22;20337;-93
2023/06/04 11:11:35;;;;;;;7.35;3.58;;;;;;;;;;6280878;22;20003;-93
2023/06/04 11:14:12;;;;;;;7.07;3.97;;;;;;;;;;6281510;22;20500;-95
2023/06/04 11:16:39;;;;;;;5.97;3.65;;;;;;;;;;6279765;22;20062;-95
2023/06/04 11:19:05;;;;;;;5.45;3.70;;;;;;;;;;6237427;22;20024;-94
2023/06/04 11:21:36;;;;;;;4.63;2.90;;;;;;;;;;6288936;22;20017;-93
2023/06/04 11:24:03;;;;;;;5.63;3.00;;;;;;;;;;6188817;22;20005;-92
2023/06/04 11:26:33;;;;;;;6.18;2.80;;;;;;;;;;6293274;22;20076;-92
2023/06/04 11:29:00;;;;;;;4.70;3.00;;;;;;;;;;6307530;22;19996;-91
2023/06/04 11:31:26;;;;;;;8.30;2.80;;;;;;;;;;6283108;22;20452;-92
2023/06/04 11:33:52;;;;;;;5.90;2.63;;;;;;;;;;6257133;22;20027;-89
2023/06/04 11:36:26;;;;;;;5.30;2.78;;;;;;;;;;6283959;22;20003;-92
2023/06/04 11:38:59;;;;;;;4.25;2.42;;;;;;;;;;6258127;22;20011;-93
2023/06/04 11:41:36;;;;;;;7.03;2.50;;;;;;;;;;6255025;22;20010;-90
2023/06/04 11:44:07;;;;;;;4.70;2.78;;;;;;;;;;6282267;22;20491;-92
2023/06/04 11:46:33;;;;;;;3.95;2.70;;;;;;;;;;6283198;22;20063;-91
2023/06/04 11:49:00;;;;;;;5.57;2.78;;;;;;;;;;6281284;22;20093;-92
2023/06/04 11:51:26;;;;;;;4.50;2.75;;;;;;;;;;6283061;22;20008;-91
2023/06/04 11:53:53;;;;;;;4.93;2.75;;;;;;;;;;6248274;22;20013;-92
2023/06/04 11:56:19;;;;;;;8.18;3.15;;;;;;;;;;6216621;22;20001;-92
2023/06/04 11:58:53;;;;;;;6.97;2.80;;;;;;;;;;6306356;22;20025;-95
2023/06/04 12:01:28;;;;;;;6.85;2.65;;;;;;;;;;6284722;22;20001;-92
2023/06/04 12:04:08;;;;;;;6.47;2.55;;;;;;;;;;6298339;22;20073;-95
2023/06/04 12:06:57;;;;;;;7.75;2.63;;;;;;;;;;6269654;22;20001;-92
2023/06/04 12:09:32;;;;;;;5.55;2.88;;;;;;;;;;6289058;22;20109;-89
2023/06/04 12:12:01;;;;;;;6.35;2.65;;;;;;;;;;6290285;22;20012;-91
2023/06/04 12:14:28;;;;;;;6.07;2.35;;;;;;;;;;6288139;22;20012;-89
2023/06/04 12:17:07;;;;;;;4.75;2.38;;;;;;;;;;6289363;22;20019;-92
2023/06/04 12:19:33;;;;;;;7.95;2.67;;;;;;;;;;6289289;22;20001;-90
2023/06/04 12:22:04;;;;;;;5.13;2.67;;;;;;;;;;6288086;22;20005;-89
2023/06/04 12:24:34;;;;;;;4.10;2.42;;;;;;;;;;6288438;22;20009;-90
2023/06/04 12:27:04;;;;;;;4.32;2.53;;;;;;;;;;6288549;22;20012;-89
2023/06/04 12:29:49;;;;;;;4.72;2.30;;;;;;;;;;6289380;22;20008;-92
2023/06/04 12:32:18;;;;;;;3.88;2.40;;;;;;;;;;6289071;22;20484;-93
2023/06/04 12:34:48;;;;;;;9.70;2.40;;;;;;;;;;6289373;22;20062;-92
2023/06/04 12:37:14;;;;;;;5.10;2.42;;;;;;;;;;6292401;22;20009;-91
2023/06/04 12:39:40;;;;;;;4.75;2.72;;;;;;;;;;6302013;22;20001;-94
2023/06/04 12:42:10;;;;;;;6.82;2.88;;;;;;;;;;6294113;22;20015;-91
2023/06/04 12:44:37;;;;;;;6.05;2.80;;;;;;;;;;6290020;22;20009;-94
2023/06/04 12:47:03;;;;;;;7.53;2.83;;;;;;;;;;6293633;22;20048;-93
2023/06/04 12:52:21;;;;;;;4.45;2.40;;;;;;;;;;6189985;23;20032;-93
2023/06/04 12:54:48;;;;;;;5.68;2.70;;;;;;;;;;6189929;23;19989;-93
2023/06/04 12:57:18;;;;;;;6.10;2.72;;;;;;;;;;6155020;22;20024;-93
2023/06/04 12:59:44;;;;;;;4.00;2.35;;;;;;;;;;6249782;23;20057;-92
2023/06/04 13:02:10;;;;;;;3.95;2.58;;;;;;;;;;6251696;23;20016;-91
2023/06/04 13:04:36;;;;;;;5.50;2.97;;;;;;;;;;6255011;22;20578;-94
2023/06/04 13:07:03;;;;;;;6.28;2.75;;;;;;;;;;6278696;22;20025;-93
2023/06/04 13:09:29;;;;;;;6.43;2.60;;;;;;;;;;6295392;22;20001;-92
2023/06/04 13:11:55;;;;;;;3.72;2.30;;;;;;;;;;6291680;22;20012;-91
2023/06/04 13:14:21;;;;;;;4.75;2.47;;;;;;;;;;6290046;22;20005;-90
2023/06/04 13:16:48;;;;;;;5.72;2.47;;;;;;;;;;6291302;22;20013;-91
2023/06/04 13:19:20;;;;;;;5.55;2.42;;;;;;;;;;6290894;22;20078;-89
2023/06/04 13:21:46;;;;;;;4.20;2.60;;;;;;;;;;6295517;22;20017;-90
2023/06/04 13:24:13;;;;;;;4.15;2.30;;;;;;;;;;6190387;23;19989;-89
2023/06/04 13:26:39;;;;;;;4.88;2.60;;;;;;;;;;6290403;22;20005;-96
2023/06/04 13:29:05;;;;;;;4.70;2.33;;;;;;;;;;6289868;22;20131;-95
2023/06/04 13:31:31;;;;;;;4.55;2.53;;;;;;;;;;6295901;22;20020;-96
2023/06/04 13:34:09;;;;;;;6.80;2.38;;;;;;;;;;6290119;22;20001;-96
2023/06/04 13:36:37;;;;;;;5.03;2.60;;;;;;;;;;6289236;22;20008;-95
2023/06/04 13:39:03;;;;;;;5.15;2.50;;;;;;;;;;6290666;22;20468;-93
2023/06/04 13:41:32;;;;;;;4.30;2.40;;;;;;;;;;6288455;22;20009;-96
2023/06/04 13:43:58;;;;;;;4.63;2.22;;;;;;;;;;6288931;22;20009;-90
2023/06/04 13:46:24;;;;;;;5.93;2.47;;;;;;;;;;6302777;22;20005;-91
2023/06/04 13:48:50;;;;;;;6.85;2.72;;;;;;;;;;6297183;22;20005;-90
2023/06/04 13:51:16;;;;;;;5.93;2.50;;;;;;;;;;6289127;22;20080;-91
2023/06/04 13:53:45;;;;;;;5.38;2.70;;;;;;;;;;6288435;22;20012;-93
2023/06/04 13:58:51;;;;;;;5.10;2.78;;;;;;;;;;6348559;22;20023;-91
2023/06/04 14:01:17;;;;;;;6.35;2.90;;;;;;;;;;6316314;22;20378;-91
2023/06/04 14:03:44;;;;;;;4.78;2.53;;;;;;;;;;6274732;22;20013;-91
2023/06/04 14:06:16;;;;;;;4.85;2.20;;;;;;;;;;6291026;22;20106;-89
2023/06/04 14:08:42;;;;;;;4.60;2.55;;;;;;;;;;6279407;22;20078;-90
2023/06/04 14:11:08;;;;;;;5.65;2.53;;;;;;;;;;6278174;22;20110;-90
2023/06/04 14:13:34;;;;;;;6.13;2.50;;;;;;;;;;6280679;22;20008;-91
2023/06/04 14:16:00;;;;;;;4.22;2.40;;;;;;;;;;6279403;22;20031;-90
2023/06/04 14:18:26;;;;;;;6.03;2.42;;;;;;;;;;6281241;22;19995;-90
2023/06/04 14:20:53;;;;;;;8.13;2.72;;;;;;;;;;6279729;22;20008;-90
2023/06/04 14:23:19;;;;;;;6.38;2.80;;;;;;;;;;6280175;22;20016;-90
2023/06/04 14:25:51;;;;;;;4.88;2.47;;;;;;;;;;6286010;22;20310;-91
2023/06/04 14:28:18;;;;;;;5.55;2.33;;;;;;;;;;6282314;22;20089;-90
2023/06/04 14:30:44;;;;;;;4.57;2.28;;;;;;;;;;6280101;22;20049;-90
2023/06/04 14:35:49;;;;;;;5.45;2.30;;;;;;;;;;6270367;22;20020;-90
2023/06/04 14:38:17;;;;;;;4.20;2.60;;;;;;;;;;6255284;22;20007;-89
2023/06/04 14:40:45;;;;;;;4.40;2.47;;;;;;;;;;6254929;22;20004;-87
2023/06/04 14:43:28;;;;;;;6.65;2.35;;;;;;;;;;6286105;22;20019;-89
2023/06/04 14:45:55;;;;;;;5.20;2.75;;;;;;;;;;6282423;22;20004;-92
2023/06/04 14:48:21;;;;;;;5.20;2.42;;;;;;;;;;6254152;22;20003;-92
2023/06/04 14:50:53;;;;;;;4.78;2.53;;;;;;;;;;6254753;22;20039;-89
2023/06/04 14:53:25;;;;;;;6.00;3.05;;;;;;;;;;6259417;22;20003;-89
2023/06/04 14:55:54;;;;;;;4.33;2.80;;;;;;;;;;6263040;22;19999;-90
2023/06/04 14:58:29;;;;;;;4.43;2.70;;;;;;;;;;6192144;22;20038;-90
2023/06/04 15:00:58;;;;;;;5.75;2.97;;;;;;;;;;6254763;22;20011;-92
2023/06/04 15:03:24;;;;;;;6.47;2.60;;;;;;;;;;6257648;22;20091;-91
2023/06/04 15:05:50;;;;;;;5.13;2.90;;;;;;;;;;6228893;22;20004;-92
2023/06/04 15:08:17;;;;;;;7.03;3.20;;;;;;;;;;6253720;22;20142;-92
2023/06/04 15:10:43;;;;;;;5.13;3.03;;;;;;;;;;6251718;22;20014;-92
2023/06/04 15:13:09;;;;;;;10.60;3.30;;;;;;;;;;6250851;22;20061;-91
2023/06/04 15:15:35;;;;;;;5.00;3.10;;;;;;;;;;6257992;22;20003;-90
2023/06/04 15:18:50;;;;;;;4.13;2.75;;;;;;;;;;6260650;22;20004;-89
2023/06/04 15:20:53;;;;;;;5.88;3.05;;;;;;;;;;6267129;22;20022;-91
2023/06/04 15:23:19;;;;;;;7.45;3.10;;;;;;;;;;6256215;22;20012;-89
2023/06/04 15:25:46;;;;;;;6.35;3.17;;;;;;;;;;6258431;22;20034;-90
2023/06/04 15:28:17;;;;;;;6.00;3.17;;;;;;;;;;6284921;22;20030;-91
2023/06/04 15:30:53;;;;;;;6.78;3.15;;;;;;;;;;6136308;22;20011;-91
2023/06/04 15:33:23;;;;;;;6.05;3.17;;;;;;;;;;6226103;23;20007;-90
2023/06/04 15:35:51;;;;;;;7.22;4.03;;;;;;;;;;6222320;23;20023;-91
2023/06/04 15:38:17;;;;;;;7.13;4.07;;;;;;;;;;6223331;23;20046;-93
2023/06/04 15:40:43;;;;;;;7.10;3.33;;;;;;;;;;6225527;23;20066;-93
2023/06/04 15:45:45;;;;;;;8.00;3.42;;;;;;;;;;6169243;22;20316;-95
2023/06/04 15:48:15;;;;;;;7.22;3.20;;;;;;;;;;6257167;22;20002;-93
2023/06/04 15:50:41;;;;;;;5.50;3.65;;;;;;;;;;6257679;22;20010;-96
2023/06/04 15:53:07;;;;;;;6.57;4.22;;;;;;;;;;6258250;22;20013;-94
2023/06/04 15:55:33;;;;;;;5.90;3.53;;;;;;;;;;6257647;22;20047;-94
2023/06/04 15:57:59;;;;;;;7.57;3.40;;;;;;;;;;6262247;22;20005;-92
2023/06/04 16:02:56;;;;;;;6.25;3.80;;;;;;;;;;6296730;22;20030;-93
2023/06/04 16:05:22;;;;;;;6.82;3.72;;;;;;;;;;6284438;22;20328;-91
2023/06/04 16:11:09;;;;;;;6.05;3.38;;;;;;;;;;6187852;22;20036;-93
2023/06/04 16:18:56;;;;;;;6.80;3.20;;;;;;;;;;6129892;22;20010;-96
2023/06/04 16:24:33;;;;;;;4.85;2.97;;;;;;;;;;6105099;22;20025;-96
2023/06/04 16:32:15;;;;;;;4.65;2.67;;;;;;;;;;6109230;22;20336;-93
2023/06/04 16:39:48;;;;;;;4.82;3.05;;;;;;;;;;6127818;22;20026;-93
2023/06/04 16:42:15;;;;;;;6.32;2.75;;;;;;;;;;6103502;23;20021;-92
2023/06/04 16:44:41;;;;;;;4.90;2.78;;;;;;;;;;6099527;23;20450;-93
2023/06/04 16:47:07;;;;;;;6.60;3.20;;;;;;;;;;6100313;23;20013;-91
2023/06/04 16:49:33;;;;;;;4.72;2.97;;;;;;;;;;6099346;23;20006;-94
2023/06/04 16:52:00;;;;;;;5.13;2.72;;;;;;;;;;6101382;23;20009;-94
2023/06/04 16:54:26;;;;;;;5.70;3.20;;;;;;;;;;6100997;23;20009;-93
2023/06/04 16:56:52;;;;;;;6.25;2.95;;;;;;;;;;6101479;23;20032;-94
2023/06/04 16:59:21;;;;;;;4.25;3.17;;;;;;;;;;6103590;23;19998;-91
2023/06/04 17:01:47;;;;;;;5.95;3.00;;;;;;;;;;6103751;23;20074;-92
2023/06/04 17:04:13;;;;;;;4.18;2.72;;;;;;;;;;6106377;23;20014;-93
2023/06/04 17:06:52;;;;;;;8.43;3.55;;;;;;;;;;6110024;23;20028;-89
2023/06/04 17:09:18;;;;;;;7.20;3.38;;;;;;;;;;6117418;23;20017;-91
2023/06/04 17:11:49;;;;;;;6.22;3.55;;;;;;;;;;6105975;23;20010;-90
2023/06/04 17:14:16;;;;;;;7.70;3.72;;;;;;;;;;6137195;22;19993;-92
2023/06/04 17:19:47;;;;;;;;;;;;;;;;;;6151898;22;20075;-94
2023/06/04 17:22:16;;;;;;;6.28;3.30;;;;;;;;;;6260588;22;19915;-95
2023/06/04 17:24:42;;;;;;;6.82;3.38;;;;;;;;;;6239083;22;20030;-94
2023/06/04 17:27:13;;;;;;;6.53;3.83;;;;;;;;;;6251111;23;20000;-92
2023/06/04 17:29:39;;;;;;;6.18;4.13;;;;;;;;;;6233478;23;20012;-93
2023/06/04 17:37:27;;;;;;;5.38;3.78;;;;;;;;;;6160350;22;20034;-94
2023/06/04 17:40:00;;;;;;;6.32;4.00;;;;;;;;;;6133965;22;20096;-90
2023/06/04 17:42:26;;;;;;;6.47;3.80;;;;;;;;;;6137902;22;20152;-95
2023/06/04 17:44:52;;;;;;;12.23;4.55;;;;;;;;;;6125104;23;20439;-90
2023/06/04 17:47:18;;;;;;;6.07;4.05;;;;;;;;;;6126136;23;20017;-91
2023/06/04 17:49:45;;;;;;;6.55;3.90;;;;;;;;;;6124296;23;20006;-90
2023/06/04 17:52:11;;;;;;;8.60;4.00;;;;;;;;;;6123086;23;20059;-90
2023/06/04 17:54:41;;;;;;;5.25;3.78;;;;;;;;;;6123368;23;20143;-90
2023/06/04 17:57:07;;;;;;;6.45;4.07;;;;;;;;;;6125614;23;20002;-93
2023/06/04 17:59:33;;;;;;;9.25;3.80;;;;;;;;;;6127902;22;19990;-91
2023/06/04 18:01:59;;;;;;;6.47;4.57;;;;;;;;;;6258892;22;20018;-94
2023/06/04 18:07:01;;;;;;;9.70;5.20;;;;;;;;;;6153040;22;20030;-93
2023/06/04 18:09:27;;;;;;;10.25;4.53;;;;;;;;;;6257885;22;20002;-92
2023/06/04 18:11:53;;;;;;;6.95;4.30;;;;;;;;;;6272225;22;20096;-92
2023/06/04 18:16:54;;;;;;;6.18;3.58;;;;;;;;;;6275834;22;20019;-92
2023/06/04 18:21:51;;;;;;;6.93;3.47;;;;;;;;;;6155575;22;20029;-92
2023/06/04 18:24:21;;;;;;;9.80;4.25;;;;;;;;;;6210345;22;20087;-93
2023/06/04 18:26:47;;;;;;;7.60;3.88;;;;;;;;;;6254264;22;20020;-93
2023/06/04 18:29:13;;;;;;;8.70;4.35;;;;;;;;;;6274260;22;20000;-92
2023/06/04 18:31:39;;;;;;;6.90;4.00;;;;;;;;;;6228102;22;20019;-93
2023/06/04 18:34:11;;;;;;;5.45;3.20;;;;;;;;;;6258692;22;19988;-94
2023/06/04 18:36:37;;;;;;;8.50;4.00;;;;;;;;;;6258671;22;20426;-93
2023/06/04 18:42:35;;;;;;;5.13;3.30;;;;;;;;;;6154833;22;20029;-95
2023/06/04 18:57:54;;;;;;;6.13;3.95;;;;;;;;;;6133261;22;20028;-94
2023/06/04 19:00:20;;;;;;;6.80;4.20;;;;;;;;;;6258431;22;20053;-92
2023/06/04 19:02:49;;;;;;;5.57;4.18;;;;;;;;;;6229769;22;20020;-92
2023/06/04 19:16:23;;;;;;;10.10;4.40;;;;;;;;;;6150305;22;20090;-90
2023/06/04 19:18:49;;;;;;;7.38;4.90;;;;;;;;;;6136235;23;20014;-93
2023/06/04 19:21:21;;;;;;;7.90;4.40;;;;;;;;;;6135258;22;20016;-91
2023/06/04 19:23:50;;;;;;;6.35;4.50;;;;;;;;;;6127757;22;20013;-91
2023/06/04 19:26:17;;;;;;;6.55;4.63;;;;;;;;;;6130690;22;20006;-92
2023/06/04 19:28:43;;;;;;;7.32;4.43;;;;;;;;;;6127114;22;20059;-92
2023/06/04 19:31:11;;;;;;;7.70;4.38;;;;;;;;;;6127612;22;20441;-93
2023/06/04 19:33:37;;;;;;;5.90;4.30;;;;;;;;;;6128283;22;20026;-93
2023/06/04 19:36:04;;;;;;;9.15;4.60;;;;;;;;;;6128600;23;20020;-92
2023/06/04 19:38:32;;;;;;;8.18;4.40;;;;;;;;;;6127539;22;20006;-95
2023/06/04 19:40:58;;;;;;;7.15;4.50;;;;;;;;;;6129212;22;20007;-95
2023/06/04 19:43:24;;;;;;;7.90;4.72;;;;;;;;;;6127609;22;20010;-95
2023/06/04 19:45:50;;;;;;;8.20;4.53;;;;;;;;;;6127478;22;20037;-93
2023/06/04 19:48:17;;;;;;;10.10;5.03;;;;;;;;;;6126996;22;20006;-94
2023/06/04 19:50:44;;;;;;;11.65;5.00;;;;;;;;;;6131020;22;20167;-96
2023/06/04 19:53:10;;;;;;;10.90;5.07;;;;;;;;;;6202582;22;20359;-95
2023/06/04 19:55:37;;;;;;;10.90;5.30;;;;;;;;;;6187952;22;20015;-95
2023/06/04 19:58:03;;;;;;;7.78;4.65;;;;;;;;;;6284086;22;20058;-95
2023/06/04 20:00:29;;;;;;;11.55;6.47;;;;;;;;;;6309633;22;20086;-95
2023/06/04 20:02:56;;;;;;;13.20;6.70;;;;;;;;;;6246770;22;20019;-96
2023/06/04 20:05:34;;;;;;;9.75;6.50;;;;;;;;;;6227816;22;20022;-92
2023/06/04 20:08:00;;;;;;;12.30;6.55;;;;;;;;;;6228707;22;20010;-94
2023/06/04 20:10:49;;;;;;;12.38;6.80;;;;;;;;;;6148987;22;20006;-94
2023/06/04 20:15:56;;;;;;;13.63;8.77;;;;;;;;;;6160727;22;20005;-92
2023/06/04 20:20:58;;;;;;;14.85;8.40;;;;;;;;;;6100777;22;20085;-93
2023/06/04 20:23:25;;;;;;;12.52;8.52;;;;;;;;;;6123918;23;20129;-95
2023/06/04 20:26:03;;;;;;;13.90;7.97;;;;;;;;;;6127437;23;20301;-93
2023/06/04 20:31:22;;;;;;;15.85;8.77;;;;;;;;;;6091128;22;20072;-94
2023/06/04 20:33:51;;;;;;;10.65;7.53;;;;;;;;;;6123344;23;20423;-96
2023/06/04 20:36:17;;;;;;;14.25;8.70;;;;;;;;;;6127603;23;20013;-93
2023/06/04 20:38:44;;;;;;;12.95;9.70;;;;;;;;;;6123834;23;20010;-95
2023/06/04 20:41:10;;;;;;;16.35;9.13;;;;;;;;;;6123655;23;20002;-96
2023/06/04 20:43:46;;;;;;;11.70;8.05;;;;;;;;;;6125376;23;20013;-95
2023/06/04 20:46:13;;;;;;;12.30;9.25;;;;;;;;;;6160630;22;20082;-95
2023/06/04 20:48:40;;;;;;;12.30;8.65;;;;;;;;;;6123921;23;20014;-96
2023/06/04 20:51:06;;;;;;;7.88;6.22;;;;;;;;;;6124057;23;20085;-94
2023/06/04 20:53:32;;;;;;;11.93;7.10;;;;;;;;;;6203199;22;20075;-94
2023/06/04 20:55:59;;;;;;;13.15;7.80;;;;;;;;;;6254815;22;20026;-94
2023/06/04 20:58:25;;;;;;;11.43;7.13;;;;;;;;;;6259985;22;20011;-94
2023/06/04 21:00:51;;;;;;;11.20;7.10;;;;;;;;;;6252642;22;20004;-95
2023/06/04 21:03:17;;;;;;;12.52;7.88;;;;;;;;;;6248248;22;20030;-95
2023/06/04 21:08:36;;;;;;;12.15;7.88;;;;;;;;;;6096105;23;20022;-95
2023/06/04 21:11:02;;;;;;;12.27;6.13;;;;;;;;;;6232074;22;20218;-95
2023/06/04 21:13:29;;;;;;;10.75;6.30;;;;;;;;;;6223512;23;20010;-93
2023/06/04 21:15:55;;;;;;;10.90;7.57;;;;;;;;;;6214856;22;20033;-93
2023/06/04 21:18:22;;;;;;;13.30;8.35;;;;;;;;;;6226412;23;20060;-94
2023/06/04 21:20:49;;;;;;;13.13;7.45;;;;;;;;;;6223340;22;20020;-95
2023/06/04 21:28:54;;;;;;;11.77;7.38;;;;;;;;;;6206690;22;20019;-94
2023/06/04 21:33:56;;;;;;;8.55;6.05;;;;;;;;;;6142843;23;20400;-95
2023/06/04 21:36:22;;;;;;;11.68;7.00;;;;;;;;;;6135494;22;20002;-94
2023/06/04 21:38:48;;;;;;;10.25;6.05;;;;;;;;;;6127943;22;20010;-96
2023/06/04 21:41:14;;;;;;;11.80;7.05;;;;;;;;;;6128101;22;20025;-95
2023/06/04 21:43:41;;;;;;;9.45;6.47;;;;;;;;;;6127588;22;20079;-95
2023/06/04 21:46:07;;;;;;;14.23;8.50;;;;;;;;;;6128673;22;19985;-94
2023/06/04 21:48:33;;;;;;;8.30;6.50;;;;;;;;;;6123266;23;20010;-95
2023/06/04 21:53:35;;;;;;;11.15;6.55;;;;;;;;;;6150123;22;20720;-93
2023/06/04 21:56:01;;;;;;;9.27;5.82;;;;;;;;;;6230966;22;20026;-94
2023/06/04 21:58:27;;;;;;;9.60;6.00;;;;;;;;;;6284283;22;20046;-94
2023/06/04 22:00:56;;;;;;;13.57;7.38;;;;;;;;;;6283909;22;20011;-94
2023/06/04 22:06:14;;;;;;;10.02;7.45;;;;;;;;;;6263058;22;20157;-95
2023/06/04 22:08:49;;;;;;;9.85;8.23;;;;;;;;;;6290573;22;20088;-94
2023/06/04 22:13:51;;;;;;;10.55;7.07;;;;;;;;;;6142898;22;20030;-95
2023/06/04 22:16:17;;;;;;;10.35;6.57;;;;;;;;;;6127746;23;20002;-95
2023/06/04 22:18:43;;;;;;;12.10;5.63;;;;;;;;;;6215104;22;20022;-94
2023/06/04 22:21:09;;;;;;;7.53;5.75;;;;;;;;;;6225828;23;20034;-95
2023/06/04 22:23:35;;;;;;;8.80;6.47;;;;;;;;;;6224556;22;20032;-94
2023/06/04 22:26:01;;;;;;;9.98;7.05;;;;;;;;;;6272136;22;20000;-95
2023/06/04 22:31:03;;;;;;;11.43;8.30;;;;;;;;;;6163504;22;20033;-96
2023/06/04 22:33:29;;;;;;;9.25;7.07;;;;;;;;;;6207598;22;20026;-95
2023/06/04 22:38:31;;;;;;;11.55;7.55;;;;;;;;;;6079515;23;20878;-95
2023/06/04 22:43:38;;;;;;;12.38;7.53;;;;;;;;;;6083465;23;20021;-95
2023/06/04 22:48:40;;;;;;;12.23;7.50;;;;;;;;;;6152191;23;19963;-94
2023/06/04 22:58:54;;;;;;;13.13;6.47;;;;;;;;;;6100640;23;20397;-95
2023/06/04 23:01:22;;;;;;;10.90;6.65;;;;;;;;;;6181653;22;20431;-95
2023/06/04 23:12:15;;;;;;;11.85;6.95;;;;;;;;;;6143219;22;21093;-93
2023/06/04 23:22:27;;;;;;;10.15;7.50;;;;;;;;;;6124244;22;20917;-93
